createdAt,value
2023-02-28T00:02:19.137Z,11.90
2023-02-28T00:04:53.983Z,11.90
2023-02-28T00:07:22.477Z,11.90
2023-02-28T00:09:52.426Z,12.00
2023-02-28T00:12:20.934Z,12.00
2023-02-28T00:14:49.683Z,12.00
2023-02-28T00:17:18.902Z,12.10
2023-02-28T00:19:47.189Z,12.10
2023-02-28T00:22:16.587Z,12.10
2023-02-28T00:24:45.020Z,12.10
2023-02-28T00:27:15.470Z,12.10
2023-02-28T00:29:51.367Z,12.10
2023-02-28T00:32:20.076Z,12.10
2023-02-28T00:34:48.431Z,12.00
2023-02-28T00:37:16.886Z,12.10
2023-02-28T00:39:45.286Z,12.10
2023-02-28T00:42:18.797Z,12.10
2023-02-28T00:44:49.781Z,12.00
2023-02-28T00:47:20.999Z,12.10
2023-02-28T00:49:53.175Z,12.10
2023-02-28T00:52:22.529Z,12.10
2023-02-28T00:54:54.430Z,12.10
2023-02-28T00:57:29.455Z,12.10
2023-02-28T01:00:00.519Z,12.10
2023-02-28T01:02:29.488Z,12.10
2023-02-28T01:04:58.274Z,12.10
2023-02-28T01:07:27.576Z,12.00
2023-02-28T01:09:56.158Z,12.10
2023-02-28T01:12:30.542Z,12.10
2023-02-28T01:15:00.222Z,12.20
2023-02-28T01:17:28.633Z,12.20
2023-02-28T01:19:57.641Z,12.20
2023-02-28T01:22:27.278Z,12.30
2023-02-28T01:24:55.853Z,12.30
2023-02-28T01:27:24.201Z,12.30
2023-02-28T01:29:55.906Z,12.40
2023-02-28T01:32:24.376Z,12.40
2023-02-28T01:34:55.273Z,12.30
2023-02-28T01:37:25.483Z,12.30
2023-02-28T01:39:54.210Z,12.30
2023-02-28T01:42:25.206Z,12.30
2023-02-28T01:45:01.947Z,12.30
2023-02-28T01:47:33.764Z,12.30
2023-02-28T01:50:04.364Z,12.20
2023-02-28T01:52:35.246Z,12.10
2023-02-28T01:55:06.755Z,12.10
2023-02-28T01:57:40.291Z,12.00
2023-02-28T02:00:16.358Z,12.00
2023-02-28T02:02:52.240Z,12.00
2023-02-28T02:05:22.796Z,12.10
2023-02-28T02:07:54.757Z,12.00
2023-02-28T02:10:27.111Z,11.90
2023-02-28T02:13:15.117Z,11.90
2023-02-28T02:15:51.493Z,12.00
2023-02-28T02:18:28.126Z,12.00
2023-02-28T02:21:24.516Z,11.90
2023-02-28T02:24:27.323Z,12.00
2023-02-28T02:27:18.664Z,11.90
2023-02-28T02:30:13.129Z,11.90
2023-02-28T02:33:00.479Z,11.80
2023-02-28T02:35:35.190Z,11.90
2023-02-28T02:38:12.146Z,11.90
2023-02-28T02:40:47.481Z,11.90
2023-02-28T02:43:22.124Z,11.80
2023-02-28T02:45:54.422Z,11.80
2023-02-28T02:48:27.541Z,11.70
2023-02-28T02:51:00.807Z,11.70
2023-02-28T02:53:34.730Z,11.80
2023-02-28T02:56:04.345Z,11.70
2023-02-28T02:58:37.407Z,11.60
2023-02-28T03:01:07.136Z,11.60
2023-02-28T03:03:36.389Z,11.80
2023-02-28T03:06:07.390Z,11.90
2023-02-28T03:08:38.328Z,12.00
2023-02-28T03:11:10.163Z,12.00
2023-02-28T03:14:02.318Z,12.10
2023-02-28T03:16:41.519Z,12.10
2023-02-28T03:19:29.665Z,12.10
2023-02-28T03:22:14.896Z,12.00
2023-02-28T03:24:48.109Z,11.90
2023-02-28T03:27:21.244Z,11.80
2023-02-28T03:29:54.011Z,11.80
2023-02-28T03:32:28.466Z,11.70
2023-02-28T03:35:04.743Z,11.70
2023-02-28T03:37:40.310Z,11.60
2023-02-28T03:40:13.842Z,11.70
2023-02-28T03:42:46.616Z,11.70
2023-02-28T03:45:18.600Z,11.60
2023-02-28T03:47:53.527Z,11.50
2023-02-28T03:50:25.836Z,11.50
2023-02-28T03:53:05.731Z,11.40
2023-02-28T03:55:42.948Z,11.40
2023-02-28T03:58:20.668Z,11.40
2023-02-28T04:00:53.117Z,11.30
2023-02-28T04:03:22.462Z,11.30
2023-02-28T04:05:53.967Z,11.30
2023-02-28T04:08:25.295Z,11.40
2023-02-28T04:10:58.804Z,11.40
2023-02-28T04:13:28.068Z,11.40
2023-02-28T04:15:56.439Z,11.20
2023-02-28T04:18:24.896Z,11.20
2023-02-28T04:20:53.189Z,11.20
2023-02-28T04:23:21.542Z,11.20
2023-02-28T04:25:52.230Z,11.20
2023-02-28T04:28:20.684Z,11.10
2023-02-28T04:30:48.948Z,11.10
2023-02-28T04:33:18.122Z,11.10
2023-02-28T04:35:46.523Z,11.10
2023-02-28T04:38:14.951Z,11.10
2023-02-28T04:40:43.299Z,11.20
2023-02-28T04:43:12.993Z,11.10
2023-02-28T04:45:41.344Z,11.10
2023-02-28T04:48:09.694Z,11.10
2023-02-28T04:50:38.041Z,11.00
2023-02-28T04:53:06.461Z,11.10
2023-02-28T04:55:34.801Z,11.10
2023-02-28T04:58:03.329Z,11.10
2023-02-28T05:00:34.539Z,11.00
2023-02-28T05:03:03.220Z,11.00
2023-02-28T05:05:31.774Z,11.10
2023-02-28T05:08:00.307Z,11.10
2023-02-28T05:10:28.641Z,11.10
2023-02-28T05:12:57.147Z,11.10
2023-02-28T05:15:25.897Z,11.20
2023-02-28T05:17:55.658Z,11.20
2023-02-28T05:20:23.941Z,11.20
2023-02-28T05:22:53.711Z,11.30
2023-02-28T05:25:23.898Z,11.20
2023-02-28T05:27:52.477Z,11.20
2023-02-28T05:30:21.146Z,11.20
2023-02-28T05:32:52.956Z,11.30
2023-02-28T05:35:22.772Z,11.40
2023-02-28T05:37:51.140Z,11.40
2023-02-28T05:40:21.469Z,11.40
2023-02-28T05:42:49.832Z,11.40
2023-02-28T05:45:18.616Z,11.40
2023-02-28T05:47:46.987Z,11.30
2023-02-28T05:50:15.284Z,11.30
2023-02-28T05:52:44.985Z,11.20
2023-02-28T05:55:13.506Z,11.20
2023-02-28T05:57:41.832Z,11.20
2023-02-28T06:00:11.614Z,11.20
2023-02-28T06:02:42.964Z,11.30
2023-02-28T06:05:16.258Z,11.30
2023-02-28T06:07:46.598Z,11.40
2023-02-28T06:10:15.940Z,11.50
2023-02-28T06:12:44.583Z,11.50
2023-02-28T06:15:15.355Z,11.60
2023-02-28T06:17:44.194Z,11.70
2023-02-28T06:20:14.860Z,11.70
2023-02-28T06:22:43.964Z,11.70
2023-02-28T06:25:14.203Z,11.70
2023-02-28T06:27:42.666Z,11.80
2023-02-28T06:30:12.391Z,11.80
2023-02-28T06:32:40.794Z,11.80
2023-02-28T06:35:09.865Z,11.90
2023-02-28T06:37:40.210Z,11.80
2023-02-28T06:40:11.670Z,11.90
2023-02-28T06:42:41.586Z,12.00
2023-02-28T06:45:11.248Z,11.80
2023-02-28T06:47:40.631Z,11.80
2023-02-28T06:50:11.274Z,11.80
2023-02-28T06:52:39.899Z,11.90
2023-02-28T06:55:10.098Z,12.10
2023-02-28T06:57:40.313Z,12.20
2023-02-28T07:00:11.072Z,12.30
2023-02-28T07:02:39.657Z,12.30
2023-02-28T07:05:08.518Z,12.40
2023-02-28T07:07:39.583Z,12.40
2023-02-28T07:10:08.645Z,12.60
2023-02-28T07:12:38.275Z,12.70
2023-02-28T07:15:10.523Z,12.80
2023-02-28T07:17:38.913Z,12.90
2023-02-28T07:20:08.335Z,13.00
2023-02-28T07:22:37.617Z,13.10
2023-02-28T07:25:06.447Z,12.90
2023-02-28T07:27:35.298Z,13.00
2023-02-28T07:30:04.723Z,13.10
2023-02-28T07:32:34.418Z,13.30
2023-02-28T07:35:02.769Z,13.40
2023-02-28T07:37:32.533Z,13.60
2023-02-28T07:40:00.830Z,13.80
2023-02-28T07:42:29.216Z,13.90
2023-02-28T07:44:57.492Z,14.00
2023-02-28T07:47:25.805Z,14.10
2023-02-28T07:49:55.604Z,14.10
2023-02-28T07:52:24.654Z,14.20
2023-02-28T07:54:53.162Z,14.20
2023-02-28T07:57:21.660Z,14.10
2023-02-28T07:59:50.056Z,14.00
2023-02-28T08:02:19.779Z,14.20
2023-02-28T08:04:49.101Z,14.40
2023-02-28T08:07:27.577Z,14.50
2023-02-28T08:09:56.258Z,14.60
2023-02-28T08:12:24.641Z,14.70
2023-02-28T08:14:53.127Z,14.70
2023-02-28T08:17:24.104Z,14.70
2023-02-28T08:19:52.512Z,14.70
2023-02-28T08:22:22.397Z,14.70
2023-02-28T08:24:51.609Z,14.60
2023-02-28T08:27:20.044Z,14.50
2023-02-28T08:29:48.635Z,14.60
2023-02-28T08:32:28.901Z,14.60
2023-02-28T08:34:59.264Z,14.60
2023-02-28T08:37:33.308Z,14.60
2023-02-28T08:40:05.246Z,14.70
2023-02-28T08:42:34.686Z,14.80
2023-02-28T08:45:03.131Z,14.80
2023-02-28T08:47:43.903Z,14.90
2023-02-28T08:50:15.974Z,14.90
2023-02-28T08:52:46.635Z,15.00
2023-02-28T08:55:15.041Z,15.10
2023-02-28T08:57:43.459Z,15.10
2023-02-28T09:00:14.573Z,15.20
2023-02-28T09:02:44.754Z,15.30
2023-02-28T09:05:13.104Z,15.30
2023-02-28T09:07:41.445Z,15.40
2023-02-28T09:10:12.307Z,15.40
2023-02-28T09:12:40.723Z,15.50
2023-02-28T09:15:10.402Z,15.70
2023-02-28T09:17:39.671Z,15.80
2023-02-28T09:20:09.457Z,16.00
2023-02-28T09:22:38.841Z,16.00
2023-02-28T09:25:08.150Z,16.00
2023-02-28T09:27:38.757Z,16.10
2023-02-28T09:30:08.416Z,16.20
2023-02-28T09:32:36.860Z,16.30
2023-02-28T09:35:05.872Z,16.40
2023-02-28T09:37:34.518Z,16.50
2023-02-28T09:40:04.095Z,16.60
2023-02-28T09:42:35.840Z,16.60
2023-02-28T09:45:20.002Z,16.70
2023-02-28T09:47:50.732Z,16.80
2023-02-28T09:50:31.398Z,16.80
2023-02-28T09:53:00.928Z,16.90
2023-02-28T09:55:41.540Z,17.00
2023-02-28T09:58:22.680Z,17.10
2023-02-28T10:01:00.275Z,17.20
2023-02-28T10:03:36.262Z,17.30
2023-02-28T10:06:13.633Z,17.30
2023-02-28T10:08:51.706Z,17.50
2023-02-28T10:11:21.946Z,17.50
2023-02-28T10:13:59.138Z,17.50
2023-02-28T10:16:33.349Z,17.50
2023-02-28T10:19:06.695Z,17.60
2023-02-28T10:21:40.524Z,17.70
2023-02-28T10:24:21.610Z,17.70
2023-02-28T10:26:54.407Z,17.80
2023-02-28T10:29:22.749Z,17.90
2023-02-28T10:31:53.287Z,17.90
2023-02-28T10:34:21.774Z,17.90
2023-02-28T10:37:08.336Z,18.00
2023-02-28T10:39:39.853Z,18.20
2023-02-28T10:42:22.905Z,18.40
2023-02-28T10:44:51.447Z,18.40
2023-02-28T10:47:25.768Z,18.40
2023-02-28T10:49:54.451Z,18.40
2023-02-28T10:52:38.689Z,18.60
2023-02-28T10:55:22.227Z,18.70
2023-02-28T10:57:52.009Z,18.70
2023-02-28T11:00:23.084Z,18.80
2023-02-28T11:02:53.424Z,18.90
2023-02-28T11:05:31.116Z,19.00
2023-02-28T11:08:05.919Z,19.20
2023-02-28T11:10:35.991Z,19.30
2023-02-28T11:13:05.404Z,19.30
2023-02-28T11:15:36.325Z,19.40
2023-02-28T11:18:23.991Z,19.60
2023-02-28T11:20:55.257Z,19.60
2023-02-28T11:23:29.329Z,19.90
2023-02-28T11:26:01.921Z,20.20
2023-02-28T11:28:33.582Z,20.40
2023-02-28T11:31:16.861Z,20.50
2023-02-28T11:33:53.194Z,20.60
2023-02-28T11:36:25.706Z,20.40
2023-02-28T11:38:55.297Z,20.20
2023-02-28T11:41:51.003Z,20.30
2023-02-28T11:44:34.625Z,20.60
2023-02-28T11:47:10.308Z,20.70
2023-02-28T11:49:47.514Z,20.90
2023-02-28T11:52:23.596Z,20.90
2023-02-28T11:55:10.236Z,20.80
2023-02-28T11:57:53.804Z,21.10
2023-02-28T12:00:39.444Z,21.30
2023-02-28T12:03:20.003Z,21.30
2023-02-28T12:05:56.419Z,21.20
2023-02-28T12:08:39.829Z,21.10
2023-02-28T12:11:17.675Z,21.10
2023-02-28T12:13:57.529Z,21.20
2023-02-28T12:16:48.030Z,21.30
2023-02-28T12:19:23.554Z,21.10
2023-02-28T12:22:16.760Z,21.00
2023-02-28T12:25:00.032Z,21.30
2023-02-28T12:27:32.386Z,21.30
2023-02-28T12:30:05.352Z,21.20
2023-02-28T12:32:37.601Z,21.20
2023-02-28T12:35:15.363Z,21.30
2023-02-28T12:37:49.493Z,21.40
2023-02-28T12:40:22.506Z,21.60
2023-02-28T12:42:54.251Z,21.70
2023-02-28T12:45:26.106Z,21.40
2023-02-28T12:47:59.496Z,21.80
2023-02-28T12:50:29.352Z,22.00
2023-02-28T12:53:04.653Z,22.30
2023-02-28T12:55:42.745Z,22.50
2023-02-28T12:58:16.147Z,22.80
2023-02-28T13:01:07.062Z,22.80
2023-02-28T13:04:01.722Z,23.40
2023-02-28T13:06:47.109Z,23.70
2023-02-28T13:09:17.815Z,23.70
2023-02-28T13:11:48.263Z,23.60
2023-02-28T13:14:25.328Z,23.30
2023-02-28T13:17:03.831Z,23.20
2023-02-28T13:19:35.013Z,23.30
2023-02-28T13:22:04.005Z,24.10
2023-02-28T13:24:46.009Z,25.50
2023-02-28T13:27:40.459Z,27.10
2023-02-28T13:30:46.502Z,27.30
2023-02-28T13:33:32.132Z,27.30
2023-02-28T13:36:24.995Z,28.20
2023-02-28T13:38:54.942Z,29.40
2023-02-28T13:41:50.508Z,30.30
2023-02-28T13:44:24.308Z,29.10
2023-02-28T13:47:30.126Z,28.90
2023-02-28T13:50:25.086Z,29.40
2023-02-28T13:53:16.674Z,28.30
2023-02-28T13:55:51.452Z,28.40
2023-02-28T13:58:40.268Z,28.20
2023-02-28T14:01:33.871Z,28.30
2023-02-28T14:04:28.638Z,27.30
2023-02-28T14:06:59.828Z,26.70
2023-02-28T14:09:31.992Z,25.90
2023-02-28T14:12:39.132Z,25.20
2023-02-28T14:15:31.189Z,24.20
2023-02-28T14:18:01.995Z,23.40
2023-02-28T14:20:34.198Z,22.70
2023-02-28T14:23:08.901Z,22.30
2023-02-28T14:25:42.660Z,21.80
2023-02-28T14:28:21.289Z,21.80
2023-02-28T14:31:03.668Z,21.80
2023-02-28T14:33:45.523Z,21.70
2023-02-28T14:36:19.674Z,21.40
2023-02-28T14:38:54.252Z,21.20
2023-02-28T14:41:26.230Z,21.20
2023-02-28T14:43:57.472Z,21.20
2023-02-28T14:46:32.874Z,21.10
2023-02-28T14:49:01.464Z,20.80
2023-02-28T14:51:29.894Z,20.50
2023-02-28T14:54:02.912Z,20.30
2023-02-28T14:56:37.280Z,20.30
2023-02-28T14:59:07.344Z,20.30
2023-02-28T15:01:37.299Z,20.20
2023-02-28T15:04:07.994Z,20.20
2023-02-28T15:06:36.503Z,20.10
2023-02-28T15:09:17.773Z,20.00
2023-02-28T15:11:50.820Z,20.00
2023-02-28T15:14:23.483Z,19.80
2023-02-28T15:16:58.577Z,19.70
2023-02-28T15:19:30.565Z,19.70
2023-02-28T15:22:04.890Z,19.60
2023-02-28T15:24:39.538Z,19.50
2023-02-28T15:27:13.477Z,19.50
2023-02-28T15:29:48.674Z,19.50
2023-02-28T15:32:29.449Z,19.40
2023-02-28T15:35:00.771Z,19.20
2023-02-28T15:37:47.323Z,19.10
2023-02-28T15:40:25.726Z,18.90
2023-02-28T15:43:06.143Z,18.80
2023-02-28T15:45:39.352Z,18.70
2023-02-28T15:48:18.524Z,18.70
2023-02-28T15:50:49.187Z,18.70
2023-02-28T15:53:21.376Z,18.40
2023-02-28T15:55:56.679Z,18.30
2023-02-28T15:58:26.788Z,18.30
2023-02-28T16:01:09.328Z,18.20
2023-02-28T16:03:47.826Z,18.20
2023-02-28T16:06:36.364Z,18.10
2023-02-28T16:09:06.496Z,18.10
2023-02-28T16:11:37.070Z,17.90
2023-02-28T16:14:06.571Z,17.90
2023-02-28T16:16:36.140Z,17.90
2023-02-28T16:19:05.983Z,17.90
2023-02-28T16:21:34.952Z,17.80
2023-02-28T16:24:03.436Z,17.90
2023-02-28T16:26:31.779Z,17.80
2023-02-28T16:29:00.173Z,17.80
2023-02-28T16:31:29.018Z,17.80
2023-02-28T16:33:58.778Z,17.70
2023-02-28T16:36:30.240Z,17.60
2023-02-28T16:38:59.638Z,17.60
2023-02-28T16:41:30.917Z,17.60
2023-02-28T16:44:01.903Z,17.50
2023-02-28T16:46:35.611Z,17.50
2023-02-28T16:49:04.309Z,17.40
2023-02-28T16:51:35.739Z,17.40
2023-02-28T16:54:05.335Z,17.20
2023-02-28T16:56:35.000Z,17.30
2023-02-28T16:59:04.764Z,17.20
2023-02-28T17:01:33.779Z,17.20
2023-02-28T17:04:02.731Z,17.20
2023-02-28T17:06:33.400Z,17.10
2023-02-28T17:09:04.328Z,17.00
2023-02-28T17:11:34.032Z,16.80
2023-02-28T17:14:02.407Z,16.60
2023-02-28T17:16:34.463Z,16.50
2023-02-28T17:19:05.416Z,16.30
2023-02-28T17:21:38.708Z,16.30
2023-02-28T17:24:07.747Z,16.20
2023-02-28T17:26:36.250Z,16.30
2023-02-28T17:29:04.771Z,16.20
2023-02-28T17:31:34.179Z,16.20
2023-02-28T17:34:03.104Z,16.20
2023-02-28T17:36:31.811Z,16.20
2023-02-28T17:39:03.312Z,16.20
2023-02-28T17:41:32.579Z,16.20
2023-02-28T17:44:01.156Z,16.10
2023-02-28T17:46:29.955Z,16.00
2023-02-28T17:48:58.511Z,16.00
2023-02-28T17:51:36.510Z,15.80
2023-02-28T17:54:07.581Z,15.70
2023-02-28T17:56:35.989Z,15.70
2023-02-28T17:59:04.498Z,15.80
2023-02-28T18:01:32.905Z,15.80
2023-02-28T18:04:01.251Z,15.80
2023-02-28T18:06:48.740Z,15.70
2023-02-28T18:09:22.589Z,15.50
2023-02-28T18:11:51.225Z,15.40
2023-02-28T18:14:21.223Z,15.40
2023-02-28T18:16:50.515Z,15.40
2023-02-28T18:19:18.953Z,15.30
2023-02-28T18:21:49.959Z,15.40
2023-02-28T18:24:20.546Z,15.40
2023-02-28T18:26:48.913Z,15.30
2023-02-28T18:29:19.224Z,15.30
2023-02-28T18:31:47.745Z,15.30
2023-02-28T18:34:16.671Z,15.20
2023-02-28T18:36:47.229Z,15.10
2023-02-28T18:39:16.258Z,15.10
2023-02-28T18:41:45.998Z,15.10
2023-02-28T18:44:22.483Z,15.10
2023-02-28T18:46:51.545Z,15.10
2023-02-28T18:49:20.496Z,15.10
2023-02-28T18:51:49.759Z,15.10
2023-02-28T18:54:18.731Z,15.10
2023-02-28T18:56:48.628Z,15.10
2023-02-28T18:59:17.071Z,15.20
2023-02-28T19:01:46.718Z,15.20
2023-02-28T19:04:15.704Z,15.00
2023-02-28T19:06:44.129Z,15.10
2023-02-28T19:09:12.578Z,15.10
2023-02-28T19:11:41.042Z,15.20
2023-02-28T19:14:10.736Z,15.20
2023-02-28T19:16:39.324Z,15.30
2023-02-28T19:19:07.706Z,15.30
2023-02-28T19:21:37.155Z,15.30
2023-02-28T19:24:06.032Z,15.40
2023-02-28T19:26:34.472Z,15.40
2023-02-28T19:29:04.439Z,15.40
2023-02-28T19:31:34.589Z,15.30
2023-02-28T19:34:03.364Z,15.30
2023-02-28T19:36:31.742Z,15.40
2023-02-28T19:39:00.178Z,15.40
2023-02-28T19:41:28.791Z,15.40
2023-02-28T19:43:57.449Z,15.50
2023-02-28T19:46:26.355Z,15.60
2023-02-28T19:48:57.044Z,15.70
2023-02-28T19:51:25.478Z,15.90
2023-02-28T19:53:53.955Z,16.00
2023-02-28T19:56:22.626Z,16.20
2023-02-28T19:58:51.077Z,16.10
2023-02-28T20:01:21.004Z,15.90
2023-02-28T20:03:51.746Z,15.90
2023-02-28T20:06:21.602Z,15.90
2023-02-28T20:08:49.918Z,15.90
2023-02-28T20:11:19.062Z,16.00
2023-02-28T20:13:47.656Z,16.10
2023-02-28T20:16:17.164Z,16.20
2023-02-28T20:18:46.315Z,16.30
2023-02-28T20:21:16.698Z,16.30
2023-02-28T20:23:48.659Z,16.40
2023-02-28T20:26:20.536Z,16.40
2023-02-28T20:28:48.984Z,16.50
2023-02-28T20:31:19.710Z,16.40
2023-02-28T20:33:49.805Z,16.40
2023-02-28T20:36:21.392Z,16.40
2023-02-28T20:38:53.247Z,16.40
2023-02-28T20:41:22.353Z,16.40
2023-02-28T20:43:55.647Z,16.50
2023-02-28T20:46:24.173Z,16.40
2023-02-28T20:48:52.572Z,16.30
2023-02-28T20:51:21.665Z,16.40
2023-02-28T20:53:51.618Z,16.40
2023-02-28T20:56:23.762Z,16.40
2023-02-28T20:58:55.951Z,16.40
2023-02-28T21:01:26.932Z,16.40
2023-02-28T21:03:57.333Z,16.40
2023-02-28T21:06:28.709Z,16.30
2023-02-28T21:08:59.605Z,16.30
2023-02-28T21:11:30.006Z,16.30
2023-02-28T21:14:01.045Z,16.20
2023-02-28T21:16:30.722Z,16.30
2023-02-28T21:19:03.962Z,16.30
2023-02-28T21:21:34.255Z,16.20
2023-02-28T21:24:04.064Z,16.20
2023-02-28T21:26:33.393Z,16.20
2023-02-28T21:29:03.781Z,16.30
2023-02-28T21:31:33.663Z,16.30
2023-02-28T21:34:03.211Z,16.30
2023-02-28T21:36:35.106Z,16.30
2023-02-28T21:39:09.073Z,16.30
2023-02-28T21:41:37.774Z,16.40
2023-02-28T21:44:06.485Z,16.30
2023-02-28T21:46:35.517Z,16.30
2023-02-28T21:49:03.976Z,16.30
2023-02-28T21:51:32.805Z,16.30
2023-02-28T21:54:02.227Z,16.20
2023-02-28T21:56:33.419Z,16.30
2023-02-28T21:59:02.856Z,16.30
2023-02-28T22:01:34.834Z,16.30
2023-02-28T22:04:05.162Z,16.30
2023-02-28T22:06:36.263Z,16.30
2023-02-28T22:09:07.811Z,16.20
2023-02-28T22:11:39.056Z,16.20
2023-02-28T22:14:12.132Z,16.20
2023-02-28T22:16:51.317Z,16.20
2023-02-28T22:19:22.018Z,16.10
2023-02-28T22:21:50.608Z,16.10
2023-02-28T22:24:20.868Z,16.20
2023-02-28T22:26:52.688Z,16.10
2023-02-28T22:29:21.177Z,16.10
2023-02-28T22:31:49.616Z,16.10
2023-02-28T22:34:18.092Z,16.10
2023-02-28T22:36:46.471Z,16.10
2023-02-28T22:39:14.824Z,16.10
2023-02-28T22:41:43.253Z,16.10
2023-02-28T22:44:13.465Z,16.10
2023-02-28T22:46:42.372Z,16.10
2023-02-28T22:49:10.866Z,16.10
2023-02-28T22:51:39.199Z,16.10
2023-02-28T22:54:07.526Z,16.10
2023-02-28T22:56:35.881Z,16.10
2023-02-28T22:59:04.622Z,16.10
2023-02-28T23:01:35.560Z,16.10
2023-02-28T23:04:04.800Z,16.20
2023-02-28T23:06:35.269Z,16.10
2023-02-28T23:09:07.398Z,16.20
2023-02-28T23:11:37.886Z,16.20
2023-02-28T23:14:06.677Z,16.10
2023-02-28T23:16:38.597Z,16.10
2023-02-28T23:19:09.739Z,16.10
2023-02-28T23:21:39.119Z,16.10
2023-02-28T23:24:10.593Z,16.20
2023-02-28T23:26:40.240Z,16.20
2023-02-28T23:29:09.041Z,16.20
2023-02-28T23:31:38.801Z,16.10
2023-02-28T23:34:07.604Z,16.10
2023-02-28T23:36:35.978Z,16.10
2023-02-28T23:39:04.478Z,16.20
2023-02-28T23:41:32.989Z,16.20
2023-02-28T23:44:01.355Z,16.10
2023-02-28T23:46:30.061Z,16.10
2023-02-28T23:49:00.036Z,16.10
2023-02-28T23:51:28.460Z,16.10
2023-02-28T23:53:56.754Z,16.00
2023-02-28T23:56:30.783Z,16.10
2023-02-28T23:58:59.537Z,16.10
